Time;durP1;ratioP1;P1;durP2;ratioP2;P2;SDS_P1;SDS_P2;PMS_P1;PMS_P2;Temp;Humidity;BMP_temperature;BMP_pressure;BME280_temperature;BME280_humidity;BME280_pressure;Samples;Min_cycle;Max_cycle;Signal;HPM_P1;HPM_P2
2021/12/05 00:24:21;;;;;;;14.65;2.40;;;5.80;99.90;;;;;;4937587;29;20067;-71
2021/12/05 00:27:00;;;;;;;16.15;2.42;;;5.80;99.90;;;;;;4939386;29;20024;-70
2021/12/05 00:43:06;;;;;;;14.23;2.10;;;5.90;99.90;;;;;;4931366;29;20406;-74
2021/12/05 00:55:53;;;;;;;21.30;2.10;;;6.00;99.90;;;;;;4930262;29;20043;-70
2021/12/05 01:16:40;;;;;;;23.67;2.88;;;6.10;99.90;;;;;;4923018;29;20102;-71
2021/12/05 01:19:09;;;;;;;15.45;1.88;;;6.00;99.90;;;;;;4928096;29;20036;-71
2021/12/05 01:21:38;;;;;;;16.55;2.38;;;6.10;99.90;;;;;;4930098;29;20042;-71
2021/12/05 01:24:26;;;;;;;15.35;1.90;;;6.20;99.90;;;;;;4928194;29;20381;-71
2021/12/05 01:27:12;;;;;;;18.65;2.25;;;6.20;99.90;;;;;;4927840;29;20027;-71
2021/12/05 01:36:13;;;;;;;24.55;2.10;;;6.20;99.90;;;;;;4868934;29;20014;-70
2021/12/05 01:51:19;;;;;;;18.38;2.30;;;6.40;99.90;;;;;;4930516;29;20394;-71
2021/12/05 02:39:28;;;;;;;14.10;2.28;;;6.80;99.90;;;;;;4926305;29;20102;-70
2021/12/05 02:41:56;;;;;;;8.45;1.27;;;6.90;99.90;;;;;;4933564;29;20032;-72
2021/12/05 02:44:26;;;;;;;7.47;1.58;;;6.90;99.90;;;;;;4926826;29;20028;-72
2021/12/05 02:47:05;;;;;;;18.02;1.88;;;7.00;99.90;;;;;;4929252;29;20063;-72
2021/12/05 02:49:33;;;;;;;18.58;1.58;;;7.00;99.90;;;;;;4920231;29;20034;-71
2021/12/05 02:52:03;;;;;;;7.82;1.55;;;7.00;99.90;;;;;;4931382;29;20510;-72
2021/12/05 02:54:34;;;;;;;5.55;1.15;;;7.00;99.90;;;;;;4928367;29;20035;-71
2021/12/05 02:57:00;;;;;;;8.15;1.40;;;7.00;99.90;;;;;;4920539;29;20032;-71
2021/12/05 02:59:42;;;;;;;;;;;7.00;99.90;;;;;;4932981;29;20055;-72
2021/12/05 03:02:13;;;;;;;8.05;1.52;;;7.00;99.90;;;;;;4928893;29;19912;-73
2021/12/05 03:04:43;;;;;;;14.02;1.60;;;7.10;99.90;;;;;;4925460;29;20130;-71
2021/12/05 03:07:10;;;;;;;8.15;1.40;;;7.10;99.90;;;;;;4931083;29;20024;-71
2021/12/05 03:09:39;;;;;;;11.43;1.65;;;7.10;99.90;;;;;;4928507;29;20036;-72
2021/12/05 03:12:09;;;;;;;10.77;1.25;;;7.10;99.90;;;;;;4923273;29;20028;-71
2021/12/05 03:14:35;;;;;;;10.30;1.58;;;7.10;99.90;;;;;;4932756;29;20067;-72
2021/12/05 03:17:01;;;;;;;16.42;1.48;;;7.10;99.90;;;;;;4931582;29;20031;-72
2021/12/05 03:19:27;;;;;;;13.43;1.40;;;7.10;99.90;;;;;;4934877;29;20561;-72
2021/12/05 03:21:53;;;;;;;8.68;1.52;;;7.20;99.90;;;;;;4933564;29;20027;-72
2021/12/05 03:24:22;;;;;;;12.38;1.70;;;7.10;99.90;;;;;;4936829;29;20040;-71
2021/12/05 03:26:51;;;;;;;16.15;1.67;;;7.20;99.90;;;;;;4935170;29;20119;-73
2021/12/05 03:29:19;;;;;;;12.10;1.67;;;7.20;99.90;;;;;;4937487;29;20040;-71
2021/12/05 03:31:46;;;;;;;12.13;2.00;;;7.20;99.90;;;;;;4928370;29;20118;-71
2021/12/05 03:34:15;;;;;;;10.77;1.50;;;7.20;99.90;;;;;;4931551;29;20043;-71
2021/12/05 03:36:48;;;;;;;9.43;1.40;;;7.10;99.90;;;;;;4934840;29;20027;-71
2021/12/05 03:39:15;;;;;;;10.25;1.48;;;7.10;99.90;;;;;;4925061;29;20055;-70
2021/12/05 03:41:42;;;;;;;6.85;1.40;;;7.10;99.90;;;;;;4931392;29;20032;-71
2021/12/05 03:44:11;;;;;;;13.82;1.90;;;7.20;99.90;;;;;;4934262;29;20042;-71
2021/12/05 03:46:37;;;;;;;8.80;1.45;;;7.20;99.90;;;;;;4932439;29;20656;-71
2021/12/05 03:49:07;;;;;;;13.48;1.60;;;7.30;99.90;;;;;;4935068;29;20064;-70
2021/12/05 03:51:35;;;;;;;13.95;2.10;;;7.20;99.90;;;;;;4928926;29;20420;-70
2021/12/05 03:54:01;;;;;;;11.40;1.58;;;7.30;99.90;;;;;;4937762;29;20159;-70
2021/12/05 03:56:27;;;;;;;10.95;1.60;;;7.20;99.90;;;;;;4935629;29;20099;-71
2021/12/05 03:58:54;;;;;;;15.77;1.77;;;7.20;99.90;;;;;;4936383;29;20115;-70
2021/12/05 04:01:20;;;;;;;15.95;1.73;;;7.30;99.90;;;;;;4928989;29;20032;-71
2021/12/05 04:03:48;;;;;;;13.32;1.77;;;7.30;99.90;;;;;;4922048;29;20451;-72
2021/12/05 04:06:16;;;;;;;12.95;1.83;;;7.30;99.90;;;;;;4929290;29;20125;-71
2021/12/05 04:08:42;;;;;;;13.98;1.73;;;7.40;99.90;;;;;;4930905;29;20459;-69
2021/12/05 04:11:33;;;;;;;18.27;1.85;;;7.40;99.90;;;;;;4933295;29;20054;-71
2021/12/05 04:14:00;;;;;;;13.27;1.35;;;7.40;99.90;;;;;;4932603;29;20318;-70
2021/12/05 04:16:26;;;;;;;12.82;1.95;;;7.40;99.90;;;;;;4936900;29;20036;-71
2021/12/05 04:18:52;;;;;;;16.05;1.95;;;7.30;99.90;;;;;;4930809;29;20050;-72
2021/12/05 04:21:18;;;;;;;13.57;1.80;;;7.30;99.90;;;;;;4939821;29;20027;-70
2021/12/05 04:23:46;;;;;;;9.70;1.90;;;7.30;99.90;;;;;;4931504;29;20390;-72
2021/12/05 04:26:13;;;;;;;11.55;1.60;;;7.20;99.90;;;;;;4935821;29;20039;-71
2021/12/05 04:28:39;;;;;;;10.60;1.77;;;7.30;99.90;;;;;;4934595;29;20035;-72
2021/12/05 04:31:15;;;;;;;11.35;1.35;;;7.30;99.90;;;;;;4935196;29;20039;-71
2021/12/05 04:33:41;;;;;;;16.67;2.00;;;7.30;99.90;;;;;;4938846;29;20039;-71
2021/12/05 04:36:08;;;;;;;6.72;1.50;;;7.40;99.90;;;;;;4926019;29;20023;-70
2021/12/05 04:38:34;;;;;;;14.25;1.63;;;7.30;99.90;;;;;;4933051;29;20088;-71
2021/12/05 04:41:00;;;;;;;10.45;1.30;;;7.30;99.90;;;;;;4940286;29;20043;-70
2021/12/05 04:43:26;;;;;;;12.68;1.60;;;7.40;99.90;;;;;;4937855;29;20509;-71
2021/12/05 04:45:53;;;;;;;9.55;1.73;;;7.40;99.90;;;;;;4930315;29;20028;-71
2021/12/05 04:48:18;;;;;;;8.73;1.80;;;7.40;99.90;;;;;;4926623;29;20118;-71
2021/12/05 04:50:45;;;;;;;6.00;1.33;;;7.40;99.90;;;;;;4935124;29;20486;-70
2021/12/05 04:53:11;;;;;;;12.13;1.73;;;7.30;99.90;;;;;;4933689;29;20038;-71
2021/12/05 04:55:38;;;;;;;7.43;1.60;;;7.40;99.90;;;;;;4935315;29;20083;-70
2021/12/05 04:58:06;;;;;;;9.80;1.70;;;7.40;99.90;;;;;;4935051;29;20465;-71
2021/12/05 05:00:42;;;;;;;10.27;1.52;;;7.40;99.90;;;;;;4934925;29;20023;-70
2021/12/05 05:03:09;;;;;;;7.18;1.60;;;7.50;99.90;;;;;;4929718;29;20057;-70
2021/12/05 05:05:37;;;;;;;8.75;1.23;;;7.40;99.90;;;;;;4932950;29;20047;-74
2021/12/05 05:08:02;;;;;;;7.28;1.27;;;7.40;99.90;;;;;;4933839;29;20034;-71
2021/12/05 05:10:31;;;;;;;6.40;1.10;;;7.40;99.90;;;;;;4931822;29;20149;-70
2021/12/05 05:12:57;;;;;;;6.57;1.30;;;7.40;99.90;;;;;;4936344;29;20024;-70
2021/12/05 05:15:26;;;;;;;9.50;1.30;;;7.40;99.90;;;;;;4933933;29;20098;-71
2021/12/05 05:17:53;;;;;;;7.82;1.38;;;7.40;99.90;;;;;;4932740;29;20050;-70
2021/12/05 05:23:35;;;;;;;6.53;1.67;;;7.50;99.90;;;;;;4922741;29;20055;-70
2021/12/05 05:47:13;;;;;;;7.43;1.30;;;7.50;99.90;;;;;;4930777;29;20413;-70
2021/12/05 05:52:11;;;;;;;9.52;1.17;;;7.50;99.90;;;;;;4932772;29;20057;-71
2021/12/05 05:54:37;;;;;;;6.57;1.15;;;7.40;99.90;;;;;;4933233;29;20098;-71
2021/12/05 05:57:15;;;;;;;7.55;1.08;;;7.40;99.90;;;;;;4930150;29;20439;-71
2021/12/05 05:59:53;;;;;;;7.80;1.20;;;7.30;99.90;;;;;;4933306;29;20099;-70
2021/12/05 06:05:04;;;;;;;6.50;0.90;;;7.40;99.90;;;;;;4936648;29;20508;-70
2021/12/05 06:07:30;;;;;;;9.60;1.70;;;7.30;99.90;;;;;;4933998;29;20036;-69
2021/12/05 06:09:55;;;;;;;10.45;1.20;;;7.20;99.90;;;;;;4932951;29;20048;-70
2021/12/05 06:12:21;;;;;;;9.32;1.00;;;7.10;99.90;;;;;;4929426;29;20119;-71
2021/12/05 06:14:47;;;;;;;9.38;1.30;;;7.00;99.90;;;;;;4932746;29;20023;-70
2021/12/05 06:17:13;;;;;;;10.95;1.70;;;6.90;99.90;;;;;;4930238;29;20043;-70
2021/12/05 06:19:39;;;;;;;7.80;1.35;;;6.70;99.90;;;;;;4931278;29;20087;-71
2021/12/05 06:22:04;;;;;;;9.48;1.30;;;6.60;99.90;;;;;;4928207;29;20500;-73
2021/12/05 06:24:30;;;;;;;14.25;1.25;;;6.50;99.90;;;;;;4924184;29;20020;-73
2021/12/05 06:26:58;;;;;;;9.85;1.35;;;6.40;99.90;;;;;;4928611;29;20024;-71
2021/12/05 06:29:26;;;;;;;5.03;1.08;;;6.30;99.90;;;;;;4927869;29;20078;-72
2021/12/05 06:40:04;;;;;;;9.93;1.13;;;6.10;99.90;;;;;;4928520;29;20023;-71
2021/12/05 06:47:42;;;;;;;8.80;1.08;;;6.20;99.90;;;;;;4929932;29;20074;-71
2021/12/05 06:50:08;;;;;;;4.18;0.73;;;6.20;99.90;;;;;;4927484;29;20060;-72
2021/12/05 06:52:34;;;;;;;9.35;1.10;;;6.00;99.90;;;;;;4928058;29;20518;-72
2021/12/05 06:55:00;;;;;;;6.10;0.93;;;5.80;99.90;;;;;;4929391;29;20031;-72
2021/12/05 06:57:25;;;;;;;3.42;0.70;;;5.70;99.90;;;;;;4929772;29;20055;-73
2021/12/05 06:59:51;;;;;;;3.08;0.68;;;5.70;99.90;;;;;;4926418;29;20034;-73
2021/12/05 07:02:19;;;;;;;7.72;0.70;;;5.70;99.90;;;;;;4928233;29;20024;-71
2021/12/05 07:07:39;;;;;;;4.53;0.80;;;5.70;99.90;;;;;;4923672;29;20039;-72
2021/12/05 07:10:08;;;;;;;5.93;0.70;;;5.60;99.90;;;;;;4927004;29;20027;-74
2021/12/05 07:13:25;;;;;;;6.85;1.08;;;5.60;99.90;;;;;;4927078;29;20024;-72
2021/12/05 07:16:10;;;;;;;;;;;5.50;99.90;;;;;;4927066;29;20477;-72
2021/12/05 07:23:56;;;;;;;6.78;0.80;;;5.70;99.90;;;;;;4930007;29;20047;-72
2021/12/05 07:40:22;;;;;;;1.95;0.63;;;5.90;99.90;;;;;;4924912;29;20107;-71
2021/12/05 07:40:30;;;;;;;5.18;0.73;;;6.10;99.90;;;;;;4925438;29;20370;-73
2021/12/05 07:43:01;;;;;;;2.85;0.80;;;6.10;99.90;;;;;;4925247;29;20390;-72
2021/12/05 07:45:37;;;;;;;3.70;0.85;;;6.10;99.90;;;;;;4923967;29;20039;-72
2021/12/05 07:48:25;;;;;;;5.43;0.70;;;6.20;99.90;;;;;;4925968;29;20440;-73
2021/12/05 07:55:09;;;;;;;3.55;1.27;;;6.20;99.90;;;;;;4918211;29;20044;-72
2021/12/05 07:57:03;;;;;;;3.88;0.90;;;6.20;99.90;;;;;;4912053;29;20119;-72
2021/12/05 08:15:47;;;;;;;4.40;0.65;;;6.10;99.90;;;;;;4928380;29;20046;-72
2021/12/05 08:18:13;;;;;;;3.58;0.57;;;6.10;99.90;;;;;;4920748;29;20053;-72
2021/12/05 08:20:42;;;;;;;3.50;0.60;;;6.10;99.90;;;;;;4907774;29;20051;-72
2021/12/05 08:23:08;;;;;;;2.60;0.60;;;6.10;99.90;;;;;;4908505;29;20707;-72
2021/12/05 08:25:37;;;;;;;4.13;0.85;;;6.00;99.90;;;;;;4906132;29;20454;-71
2021/12/05 08:28:36;;;;;;;3.75;0.80;;;6.10;99.90;;;;;;4908273;29;20526;-72
2021/12/05 08:33:52;;;;;;;2.58;0.68;;;6.00;99.90;;;;;;4905823;29;20360;-72
2021/12/05 08:40:12;;;;;;;2.80;0.60;;;6.00;99.90;;;;;;4912906;29;20438;-72
2021/12/05 09:30:37;;;;;;;2.25;0.45;;;6.20;99.90;;;;;;4909341;29;20090;-73
2021/12/05 10:06:41;;;;;;;;;;;6.10;99.90;;;;;;4901420;29;20047;-73
2021/12/05 10:09:18;;;;;;;6.53;1.17;;;5.90;99.90;;;;;;4912156;29;20387;-72
2021/12/05 10:34:19;;;;;;;10.98;1.73;;;6.50;99.90;;;;;;4913542;29;20390;-71
2021/12/05 10:36:46;;;;;;;9.38;1.40;;;6.60;99.90;;;;;;4906216;29;20036;-71
2021/12/05 10:39:23;;;;;;;8.38;1.52;;;6.70;99.90;;;;;;4910523;29;20032;-72
2021/12/05 10:42:00;;;;;;;6.03;1.70;;;6.70;99.90;;;;;;4910627;29;20023;-73
2021/12/05 10:44:41;;;;;;;7.70;1.70;;;6.70;99.90;;;;;;4904888;29;20035;-71
2021/12/05 10:47:07;;;;;;;10.82;1.98;;;6.70;99.90;;;;;;4901431;29;20035;-70
2021/12/05 10:49:32;;;;;;;8.45;1.50;;;6.80;99.90;;;;;;4916521;29;20044;-73
2021/12/05 10:51:58;;;;;;;7.43;1.50;;;6.80;99.90;;;;;;4925548;29;20041;-72
2021/12/05 10:54:27;;;;;;;11.60;1.75;;;6.80;99.90;;;;;;4902924;29;20104;-73
2021/12/05 10:56:56;;;;;;;9.18;1.40;;;6.90;99.90;;;;;;4910654;29;20028;-72
2021/12/05 10:59:27;;;;;;;8.20;1.50;;;6.90;99.90;;;;;;4911272;29;20032;-73
2021/12/05 11:01:58;;;;;;;9.73;1.88;;;7.00;99.90;;;;;;4903600;29;20024;-73
2021/12/05 11:04:51;;;;;;;9.13;1.58;;;7.10;99.90;;;;;;4909965;29;20084;-72
2021/12/05 11:07:23;;;;;;;6.70;1.88;;;7.10;99.90;;;;;;4910066;29;20057;-74
2021/12/05 11:09:57;;;;;;;11.05;1.65;;;7.10;99.90;;;;;;4912129;29;20084;-73
2021/12/05 11:12:33;;;;;;;5.90;1.38;;;7.10;99.90;;;;;;4912886;29;20044;-72
2021/12/05 11:15:13;;;;;;;11.20;2.10;;;7.20;99.90;;;;;;4908336;29;20366;-73
2021/12/05 11:17:43;;;;;;;9.88;1.60;;;7.10;99.90;;;;;;4913495;29;20024;-74
2021/12/05 11:20:28;;;;;;;8.85;1.77;;;7.10;99.90;;;;;;4909130;29;20115;-73
2021/12/05 11:22:54;;;;;;;11.73;1.48;;;7.20;99.90;;;;;;4913297;29;20040;-73
2021/12/05 11:25:23;;;;;;;12.07;1.55;;;7.30;99.90;;;;;;4910773;29;20035;-74
2021/12/05 11:27:57;;;;;;;7.50;1.40;;;7.30;99.90;;;;;;4903925;29;20119;-73
2021/12/05 11:30:33;;;;;;;7.22;1.30;;;7.30;99.90;;;;;;4910401;29;20067;-73
2021/12/05 11:33:19;;;;;;;9.07;1.70;;;7.40;99.90;;;;;;4909790;29;20036;-73
2021/12/05 11:36:00;;;;;;;8.15;1.42;;;7.40;99.90;;;;;;4912975;29;20276;-73
2021/12/05 11:38:28;;;;;;;7.15;1.10;;;7.40;99.90;;;;;;4900541;29;20059;-73
2021/12/05 11:41:03;;;;;;;7.95;1.30;;;7.40;99.90;;;;;;4917616;29;20227;-73
2021/12/05 11:43:43;;;;;;;8.95;1.30;;;7.40;99.90;;;;;;4919990;29;20028;-72
2021/12/05 11:46:19;;;;;;;9.48;1.50;;;7.40;99.90;;;;;;4914441;29;20119;-72
2021/12/05 11:48:49;;;;;;;9.82;1.77;;;7.40;99.90;;;;;;4916396;29;20036;-73
2021/12/05 11:51:33;;;;;;;10.25;1.70;;;7.50;99.90;;;;;;4913774;29;20043;-72
2021/12/05 11:54:10;;;;;;;8.00;1.83;;;7.50;99.90;;;;;;4917819;29;20036;-73
2021/12/05 11:56:35;;;;;;;;;;;7.40;99.90;;;;;;4914199;29;20024;-74
2021/12/05 11:59:27;;;;;;;7.68;1.40;;;7.40;99.90;;;;;;4913435;29;20003;-73
2021/12/05 12:02:05;;;;;;;6.45;1.50;;;7.50;99.90;;;;;;4916190;29;20047;-72
2021/12/05 12:04:58;;;;;;;8.13;1.50;;;7.50;99.90;;;;;;4910748;29;20522;-73
2021/12/05 12:07:29;;;;;;;9.57;1.80;;;7.50;99.90;;;;;;4902545;29;20031;-73
2021/12/05 12:10:15;;;;;;;9.15;1.50;;;7.50;99.90;;;;;;4907080;29;20036;-72
2021/12/05 12:12:56;;;;;;;5.80;1.50;;;7.50;99.90;;;;;;4903575;29;20040;-73
2021/12/05 12:15:24;;;;;;;6.68;1.38;;;7.50;99.90;;;;;;4916066;29;20032;-72
2021/12/05 12:17:51;;;;;;;12.63;1.88;;;7.50;99.90;;;;;;4913670;29;20121;-72
2021/12/05 12:20:21;;;;;;;12.50;1.83;;;7.50;99.90;;;;;;4917160;29;20051;-71
2021/12/05 12:22:51;;;;;;;7.65;1.40;;;7.50;99.90;;;;;;4917161;29;20035;-73
2021/12/05 12:25:22;;;;;;;10.77;1.80;;;7.60;99.90;;;;;;4913146;29;20396;-74
2021/12/05 12:27:48;;;;;;;8.98;1.42;;;7.50;99.90;;;;;;4914037;29;20066;-72
2021/12/05 12:30:24;;;;;;;11.38;2.17;;;7.50;99.90;;;;;;4920718;29;20142;-73
2021/12/05 12:32:55;;;;;;;14.00;1.48;;;7.60;99.90;;;;;;4915389;29;20032;-74
2021/12/05 12:35:27;;;;;;;7.60;1.42;;;7.50;99.90;;;;;;4911338;29;20032;-72
2021/12/05 12:38:02;;;;;;;7.30;1.65;;;7.60;99.90;;;;;;4904793;29;20133;-74
2021/12/05 12:40:43;;;;;;;7.65;1.55;;;7.50;99.90;;;;;;4904551;29;20068;-72
2021/12/05 12:43:34;;;;;;;8.18;1.50;;;7.50;99.90;;;;;;4907412;29;20040;-73
2021/12/05 12:46:28;;;;;;;5.65;1.48;;;7.50;99.90;;;;;;4892458;29;20499;-73
2021/12/05 12:49:00;;;;;;;5.90;1.42;;;7.50;99.90;;;;;;4922831;29;20039;-73
2021/12/05 12:51:30;;;;;;;7.07;1.35;;;7.50;99.90;;;;;;4905626;29;20201;-72
2021/12/05 12:54:01;;;;;;;13.23;1.58;;;7.60;99.90;;;;;;4910473;29;20028;-73
2021/12/05 12:56:27;;;;;;;9.60;1.38;;;7.60;99.90;;;;;;4909633;29;20206;-73
2021/12/05 12:58:55;;;;;;;;;;;7.50;99.90;;;;;;4905266;29;20439;-73
2021/12/05 13:05:03;;;;;;;7.60;1.35;;;7.60;99.90;;;;;;4907094;29;20427;-72
2021/12/05 13:10:33;;;;;;;6.45;1.40;;;7.60;99.90;;;;;;4903972;29;20502;-72
2021/12/05 13:13:02;;;;;;;6.68;1.55;;;7.60;99.90;;;;;;4902843;29;20039;-72
2021/12/05 13:15:38;;;;;;;9.23;1.50;;;7.70;99.90;;;;;;4905595;29;20028;-72
2021/12/05 13:18:10;;;;;;;;;;;7.70;99.90;;;;;;4904173;29;20031;-74
2021/12/05 13:20:41;;;;;;;8.25;1.52;;;7.70;99.90;;;;;;4903589;29;20398;-72
2021/12/05 13:23:16;;;;;;;4.20;1.23;;;7.70;99.90;;;;;;4902102;29;21274;-73
2021/12/05 13:26:03;;;;;;;12.40;2.15;;;7.70;99.90;;;;;;4905956;29;20864;-71
2021/12/05 13:28:30;;;;;;;7.22;1.33;;;7.70;99.90;;;;;;4908585;29;20029;-71
2021/12/05 13:30:57;;;;;;;10.60;2.30;;;7.80;99.90;;;;;;4914096;29;20502;-72
2021/12/05 13:33:28;;;;;;;9.18;1.75;;;7.90;99.90;;;;;;4910566;29;20394;-73
2021/12/05 13:35:58;;;;;;;10.32;1.58;;;7.90;99.90;;;;;;4914040;29;20036;-72
2021/12/05 13:38:40;;;;;;;8.02;1.70;;;7.80;99.90;;;;;;4902963;29;20380;-71
2021/12/05 13:41:14;;;;;;;17.67;2.10;;;7.80;99.90;;;;;;4912441;29;20147;-71
2021/12/05 13:43:41;;;;;;;7.38;1.30;;;7.70;99.90;;;;;;4916701;29;20107;-71
2021/12/05 13:46:36;;;;;;;7.28;1.40;;;7.80;99.90;;;;;;4904826;29;20497;-70
2021/12/05 13:49:34;;;;;;;10.32;2.50;;;7.70;99.90;;;;;;4910131;29;20054;-70
2021/12/05 13:52:33;;;;;;;9.48;1.58;;;7.80;99.90;;;;;;4907052;29;20032;-71
2021/12/05 13:55:39;;;;;;;10.02;1.30;;;7.70;99.90;;;;;;4901833;29;20032;-72
2021/12/05 13:58:23;;;;;;;8.02;1.38;;;7.70;99.90;;;;;;4915523;29;20324;-72
2021/12/05 14:01:23;;;;;;;8.50;1.30;;;7.80;99.90;;;;;;4900519;29;20064;-72
2021/12/05 14:04:08;;;;;;;6.85;1.40;;;7.80;99.90;;;;;;4925915;29;20042;-72
2021/12/05 14:06:40;;;;;;;7.90;1.42;;;7.80;99.90;;;;;;4913597;29;20043;-72
2021/12/05 14:09:17;;;;;;;13.13;1.83;;;7.90;99.90;;;;;;4923535;29;20393;-70
2021/12/05 14:11:57;;;;;;;13.20;2.15;;;7.90;99.90;;;;;;4906029;29;20118;-71
2021/12/05 14:14:28;;;;;;;8.70;1.30;;;8.00;99.90;;;;;;4909566;29;20060;-77
2021/12/05 14:16:56;;;;;;;4.57;1.23;;;8.10;99.90;;;;;;4906837;29;20046;-73
2021/12/05 14:19:26;;;;;;;11.75;2.22;;;8.10;99.90;;;;;;4909492;29;20084;-72
2021/12/05 14:21:54;;;;;;;14.35;3.08;;;7.90;99.90;;;;;;4911834;29;20550;-73
2021/12/05 14:24:22;;;;;;;7.22;1.65;;;7.90;99.90;;;;;;4910682;29;20546;-73
2021/12/05 14:26:54;;;;;;;7.90;1.42;;;7.90;99.90;;;;;;4910619;29;20032;-72
2021/12/05 14:29:23;;;;;;;6.05;1.58;;;7.80;99.90;;;;;;4902502;29;20057;-73
2021/12/05 14:31:55;;;;;;;15.02;2.00;;;7.80;99.90;;;;;;4908562;29;20047;-73
2021/12/05 14:34:21;;;;;;;8.52;1.50;;;7.70;99.90;;;;;;4908391;29;20373;-73
2021/12/05 14:37:01;;;;;;;7.03;1.42;;;7.70;99.90;;;;;;4901680;29;20085;-71
2021/12/05 14:39:40;;;;;;;17.52;2.08;;;7.70;99.90;;;;;;4907034;29;20124;-72
2021/12/05 14:42:10;;;;;;;12.32;1.73;;;7.70;99.90;;;;;;4912879;29;20375;-73
2021/12/05 14:44:38;;;;;;;10.10;1.52;;;7.60;99.90;;;;;;4902663;29;20059;-73
2021/12/05 14:47:13;;;;;;;7.05;1.58;;;7.60;99.90;;;;;;4905104;29;20028;-71
2021/12/05 14:49:51;;;;;;;10.02;1.67;;;7.50;99.90;;;;;;4917351;29;20028;-70
2021/12/05 14:52:23;;;;;;;7.53;1.60;;;7.50;99.90;;;;;;4906030;29;20477;-72
2021/12/05 14:54:49;;;;;;;8.55;1.73;;;7.50;99.90;;;;;;4909916;29;20067;-72
2021/12/05 14:57:17;;;;;;;8.45;1.58;;;7.40;99.90;;;;;;4913025;29;20020;-72
2021/12/05 14:59:45;;;;;;;12.98;1.90;;;7.50;99.90;;;;;;4906314;29;20466;-71
2021/12/05 15:02:12;;;;;;;10.73;1.60;;;7.60;99.90;;;;;;4915862;29;20177;-71
2021/12/05 15:04:42;;;;;;;13.45;1.40;;;7.60;99.90;;;;;;4915000;29;20028;-72
2021/12/05 15:07:09;;;;;;;7.93;1.52;;;7.70;99.90;;;;;;4906547;29;20478;-72
2021/12/05 15:09:41;;;;;;;11.80;2.20;;;7.70;99.90;;;;;;4909728;29;20074;-72
2021/12/05 15:12:09;;;;;;;13.88;2.97;;;7.80;99.90;;;;;;4932675;29;20509;-72
2021/12/05 15:14:37;;;;;;;17.30;2.85;;;7.80;99.90;;;;;;4916748;29;20032;-71
2021/12/05 15:17:12;;;;;;;12.90;2.42;;;7.90;99.90;;;;;;4914617;29;20040;-72
2021/12/05 15:19:42;;;;;;;13.00;2.53;;;7.90;99.90;;;;;;4909800;29;20040;-72
2021/12/05 15:22:12;;;;;;;8.85;2.17;;;7.70;99.90;;;;;;4906606;29;20033;-71
2021/12/05 15:24:38;;;;;;;17.58;4.97;;;7.70;99.90;;;;;;4913997;29;20036;-72
2021/12/05 15:27:14;;;;;;;13.35;2.25;;;7.70;99.90;;;;;;4911292;29;20024;-70
2021/12/05 15:29:47;;;;;;;11.23;2.03;;;7.60;99.90;;;;;;4908924;29;20528;-73
2021/12/05 15:32:19;;;;;;;9.23;2.03;;;7.60;99.90;;;;;;4909729;29;20271;-71
2021/12/05 15:34:49;;;;;;;10.75;2.90;;;7.70;99.90;;;;;;4917159;29;20027;-71
2021/12/05 15:37:15;;;;;;;22.02;5.50;;;7.60;99.90;;;;;;4910060;29;20016;-71
2021/12/05 15:39:43;;;;;;;12.07;2.15;;;7.60;99.90;;;;;;4915845;29;20123;-72
2021/12/05 15:42:21;;;;;;;12.02;2.13;;;7.60;99.90;;;;;;4934296;29;20488;-71
2021/12/05 15:44:48;;;;;;;14.82;3.55;;;7.60;99.90;;;;;;4914076;29;20058;-72
2021/12/05 15:47:20;;;;;;;13.80;3.95;;;7.70;99.90;;;;;;4909786;29;20028;-72
2021/12/05 15:49:54;;;;;;;12.15;2.30;;;7.70;99.90;;;;;;4911665;29;20724;-71
2021/12/05 15:52:25;;;;;;;10.63;2.80;;;7.70;99.90;;;;;;4911653;29;20036;-71
2021/12/05 15:54:51;;;;;;;8.60;1.73;;;7.60;99.90;;;;;;4917154;29;20043;-70
2021/12/05 15:57:28;;;;;;;12.57;2.67;;;7.60;99.90;;;;;;4909549;29;20443;-71
2021/12/05 15:59:55;;;;;;;13.20;2.08;;;7.60;99.90;;;;;;4915980;29;20020;-71
2021/12/05 16:02:22;;;;;;;11.98;2.10;;;7.60;99.90;;;;;;4907965;29;20501;-71
2021/12/05 16:04:49;;;;;;;12.90;2.20;;;7.60;99.90;;;;;;4911748;29;20036;-72
2021/12/05 16:07:17;;;;;;;9.05;1.67;;;7.60;99.90;;;;;;4914031;29;20372;-71
2021/12/05 16:09:44;;;;;;;12.70;2.03;;;7.60;99.90;;;;;;4915427;29;20055;-71
2021/12/05 16:12:14;;;;;;;9.32;2.13;;;7.60;99.90;;;;;;4910053;29;20430;-71
2021/12/05 16:14:43;;;;;;;16.17;2.30;;;7.50;99.90;;;;;;4911221;29;20029;-72
2021/12/05 16:17:29;;;;;;;11.90;1.90;;;7.50;99.90;;;;;;4908354;29;20034;-71
2021/12/05 16:20:19;;;;;;;13.27;2.38;;;7.50;99.90;;;;;;4915025;29;20035;-73
2021/12/05 16:23:18;;;;;;;7.03;1.90;;;7.50;99.90;;;;;;4911886;29;20036;-71
2021/12/05 16:26:00;;;;;;;17.42;2.60;;;7.50;99.90;;;;;;4901750;29;20510;-70
2021/12/05 16:28:38;;;;;;;13.50;2.50;;;7.50;99.90;;;;;;4910965;29;20042;-71
2021/12/05 16:31:07;;;;;;;13.82;3.88;;;7.50;99.90;;;;;;4906150;29;20044;-71
2021/12/05 16:33:34;;;;;;;11.45;2.80;;;7.50;99.90;;;;;;4912994;29;20032;-72
2021/12/05 16:36:01;;;;;;;12.27;2.20;;;7.50;99.90;;;;;;4909712;29;20087;-72
2021/12/05 16:38:51;;;;;;;15.48;3.05;;;7.50;99.90;;;;;;4913653;29;20057;-72
2021/12/05 16:41:20;;;;;;;11.82;2.15;;;7.40;99.90;;;;;;4904073;29;20912;-72
2021/12/05 16:44:13;;;;;;;10.65;2.20;;;7.50;99.90;;;;;;4908250;29;20110;-71
2021/12/05 16:47:01;;;;;;;10.70;2.78;;;7.50;99.90;;;;;;4909510;29;20028;-72
2021/12/05 16:49:33;;;;;;;14.68;4.03;;;7.50;99.90;;;;;;4913287;29;20095;-73
2021/12/05 16:52:03;;;;;;;15.25;3.80;;;7.50;99.90;;;;;;4913041;29;20048;-70
2021/12/05 16:54:33;;;;;;;11.60;2.40;;;7.50;99.90;;;;;;4907986;29;20040;-72
2021/12/05 16:57:16;;;;;;;8.73;2.78;;;7.60;99.90;;;;;;4910748;29;20091;-70
2021/12/05 17:00:09;;;;;;;10.68;2.70;;;7.50;99.90;;;;;;4909992;29;20032;-71
2021/12/05 17:02:44;;;;;;;12.65;2.47;;;7.50;99.90;;;;;;4915472;29;20036;-70
2021/12/05 17:05:22;;;;;;;10.63;2.25;;;7.40;99.90;;;;;;4909736;29;20023;-70
2021/12/05 17:07:55;;;;;;;13.95;2.90;;;7.40;99.90;;;;;;4914273;29;20044;-70
2021/12/05 17:10:20;;;;;;;12.00;2.58;;;7.40;99.90;;;;;;4909748;29;20067;-75
2021/12/05 17:12:53;;;;;;;12.40;2.63;;;7.40;99.90;;;;;;4907795;29;22172;-71
2021/12/05 17:15:30;;;;;;;11.68;2.30;;;7.40;99.90;;;;;;4911809;29;20140;-72
2021/12/05 17:18:04;;;;;;;16.20;3.03;;;7.40;99.90;;;;;;4921373;29;20042;-72
2021/12/05 17:20:43;;;;;;;11.40;2.22;;;7.40;99.90;;;;;;4916536;29;20509;-71
2021/12/05 17:23:20;;;;;;;13.20;2.45;;;7.40;99.90;;;;;;4910076;29;20028;-72
2021/12/05 17:25:48;;;;;;;;;;;7.40;99.90;;;;;;4920179;29;20487;-71
2021/12/05 17:28:28;;;;;;;17.00;3.10;;;7.40;99.90;;;;;;4907296;29;19919;-70
2021/12/05 17:30:57;;;;;;;10.13;3.00;;;7.40;99.90;;;;;;4913937;29;20052;-71
2021/12/05 17:33:39;;;;;;;11.18;2.50;;;7.40;99.90;;;;;;4913622;29;20028;-71
2021/12/05 17:36:38;;;;;;;15.82;2.78;;;7.30;99.90;;;;;;4910970;29;20051;-70
2021/12/05 17:39:18;;;;;;;11.52;2.53;;;7.30;99.90;;;;;;4908114;29;20036;-70
2021/12/05 17:41:47;;;;;;;12.38;3.00;;;7.30;99.90;;;;;;4907198;29;20466;-71
2021/12/05 17:44:17;;;;;;;14.43;2.78;;;7.30;99.90;;;;;;4909789;29;20470;-70
2021/12/05 17:46:45;;;;;;;16.77;2.40;;;7.40;99.90;;;;;;4907560;29;20040;-70
2021/12/05 17:49:13;;;;;;;13.45;2.65;;;7.30;99.90;;;;;;4912077;29;20483;-70
2021/12/05 17:51:41;;;;;;;11.57;2.33;;;7.40;99.90;;;;;;4910814;29;20140;-70
2021/12/05 17:54:11;;;;;;;14.98;2.60;;;7.40;99.90;;;;;;4911410;29;20020;-70
2021/12/05 17:56:42;;;;;;;12.60;2.90;;;7.40;99.90;;;;;;4912613;29;20036;-72
2021/12/05 17:59:13;;;;;;;16.42;3.47;;;7.30;99.90;;;;;;4911121;29;20036;-69
2021/12/05 18:04:27;;;;;;;15.27;3.05;;;7.20;99.90;;;;;;4906645;29;20039;-69
2021/12/05 18:06:53;;;;;;;13.25;2.22;;;7.10;99.90;;;;;;4910502;29;20383;-70
2021/12/05 18:09:19;;;;;;;;;;;7.10;99.90;;;;;;4914872;29;20051;-70
2021/12/05 18:11:45;;;;;;;10.85;2.72;;;7.00;99.90;;;;;;4907869;29;19911;-70
2021/12/05 18:14:11;;;;;;;9.68;2.55;;;7.00;99.90;;;;;;4912837;29;20201;-70
2021/12/05 18:16:37;;;;;;;12.65;3.20;;;7.00;99.90;;;;;;4913205;29;20135;-72
2021/12/05 18:19:17;;;;;;;11.90;2.55;;;6.90;99.90;;;;;;4913167;29;20420;-70
2021/12/05 18:21:43;;;;;;;14.93;2.83;;;6.90;99.90;;;;;;4906010;29;20433;-69
2021/12/05 18:24:13;;;;;;;10.70;2.65;;;6.80;99.90;;;;;;4905587;29;20024;-69
2021/12/05 18:26:40;;;;;;;12.40;3.10;;;6.70;99.90;;;;;;4908433;29;20024;-70
2021/12/05 18:29:08;;;;;;;19.55;5.00;;;6.70;99.90;;;;;;4911118;29;20052;-71
2021/12/05 18:31:36;;;;;;;18.42;4.40;;;6.70;99.90;;;;;;4910818;29;20047;-71
2021/12/05 18:34:10;;;;;;;22.30;3.17;;;6.70;99.90;;;;;;4909267;29;20073;-71
2021/12/05 18:36:39;;;;;;;12.75;2.90;;;6.60;99.90;;;;;;4897768;29;20064;-72
2021/12/05 18:39:10;;;;;;;16.42;3.05;;;6.70;99.90;;;;;;4912538;29;20496;-73
2021/12/05 18:41:36;;;;;;;11.68;2.55;;;6.60;99.90;;;;;;4910108;29;20036;-70
2021/12/05 18:44:08;;;;;;;15.30;3.60;;;6.60;99.90;;;;;;4903915;29;20099;-71
2021/12/05 18:46:34;;;;;;;16.88;3.40;;;6.50;99.90;;;;;;4912500;29;20491;-70
2021/12/05 18:49:00;;;;;;;14.95;3.28;;;6.40;99.90;;;;;;4910876;29;20056;-70
2021/12/05 18:51:26;;;;;;;12.98;4.03;;;6.40;99.90;;;;;;4913116;29;20086;-71